createdAt,value
2019-03-20T00:00:26.966Z,156.02
2019-03-20T00:01:08.065Z,179.03
2019-03-20T00:01:44.824Z,164.45
2019-03-20T00:02:21.008Z,164.95
2019-03-20T00:02:57.393Z,156.70
2019-03-20T00:03:34.086Z,151.20
2019-03-20T00:04:10.415Z,154.47
2019-03-20T00:04:49.905Z,154.30
2019-03-20T00:05:23.720Z,159.25
2019-03-20T00:05:59.677Z,149.70
2019-03-20T00:06:37.365Z,139.57
2019-03-20T00:07:13.405Z,153.38
2019-03-20T00:07:49.250Z,126.90
2019-03-20T00:08:25.617Z,134.60
2019-03-20T00:09:01.464Z,136.10
2019-03-20T00:09:37.340Z,129.75
2019-03-20T00:10:13.677Z,116.05
2019-03-20T00:10:50.412Z,118.97
2019-03-20T00:11:26.628Z,118.67
2019-03-20T00:12:02.894Z,126.87
2019-03-20T00:12:39.464Z,123.10
2019-03-20T00:13:15.849Z,113.55
2019-03-20T00:13:52.236Z,115.47
2019-03-20T00:14:28.458Z,115.85
2019-03-20T00:15:04.604Z,105.43
2019-03-20T00:15:41.105Z,128.25
2019-03-20T00:16:17.360Z,104.07
2019-03-20T00:16:53.794Z,101.70
2019-03-20T00:17:29.826Z,109.42
2019-03-20T00:18:05.793Z,116.57
2019-03-20T00:18:42.162Z,105.30
2019-03-20T00:19:18.723Z,110.03
2019-03-20T00:19:55.013Z,103.00
2019-03-20T00:20:31.613Z,111.30
2019-03-20T00:21:08.101Z,99.75
2019-03-20T00:21:45.020Z,97.37
2019-03-20T00:22:20.963Z,94.22
2019-03-20T00:22:57.391Z,94.22
2019-03-20T00:23:33.694Z,92.45
2019-03-20T00:24:10.129Z,99.30
2019-03-20T00:24:46.723Z,99.03
2019-03-20T00:25:23.696Z,96.92
2019-03-20T00:26:00.179Z,97.67
2019-03-20T00:26:36.082Z,89.75
2019-03-20T00:27:12.637Z,101.50
2019-03-20T00:27:51.015Z,93.82
2019-03-20T00:28:26.984Z,84.75
2019-03-20T00:29:03.087Z,83.62
2019-03-20T00:29:38.933Z,85.80
2019-03-20T00:30:15.660Z,87.67
2019-03-20T00:30:51.419Z,101.67
2019-03-20T00:31:28.610Z,100.40
2019-03-20T00:32:05.729Z,92.60
2019-03-20T00:32:41.473Z,107.20
2019-03-20T00:33:17.305Z,101.58
2019-03-20T00:33:53.362Z,88.27
2019-03-20T00:34:30.017Z,98.67
2019-03-20T00:35:06.698Z,94.95
2019-03-20T00:35:42.645Z,105.83
2019-03-20T00:36:19.008Z,120.62
2019-03-20T00:36:55.222Z,116.73
2019-03-20T00:37:31.050Z,118.17
2019-03-20T00:38:07.244Z,129.40
2019-03-20T00:38:43.776Z,123.02
2019-03-20T00:39:19.636Z,114.62
2019-03-20T00:39:55.653Z,107.90
2019-03-20T00:40:31.722Z,102.10
2019-03-20T00:41:07.792Z,106.45
2019-03-20T00:41:43.781Z,96.53
2019-03-20T00:42:19.833Z,94.75
2019-03-20T00:42:55.783Z,96.02
2019-03-20T00:43:32.066Z,80.38
2019-03-20T00:44:08.095Z,106.80
2019-03-20T00:44:44.064Z,82.80
2019-03-20T00:45:20.452Z,78.55
2019-03-20T00:45:56.821Z,90.92
2019-03-20T00:46:32.650Z,81.70
2019-03-20T00:47:08.718Z,81.47
2019-03-20T00:47:44.712Z,99.45
2019-03-20T00:48:21.003Z,95.60
2019-03-20T00:48:57.451Z,96.12
2019-03-20T00:49:33.661Z,115.52
2019-03-20T00:50:12.056Z,91.08
2019-03-20T00:50:48.498Z,91.08
2019-03-20T00:51:24.943Z,96.65
2019-03-20T00:52:01.281Z,120.00
2019-03-20T00:52:37.676Z,113.10
2019-03-20T00:53:14.042Z,126.80
2019-03-20T00:53:50.256Z,111.57
2019-03-20T00:54:28.497Z,98.70
2019-03-20T00:55:04.764Z,97.15
2019-03-20T00:55:40.729Z,97.85
2019-03-20T00:56:16.960Z,108.87
2019-03-20T00:56:53.428Z,90.32
2019-03-20T00:57:29.432Z,98.82
2019-03-20T00:58:05.743Z,107.47
2019-03-20T00:58:42.735Z,105.58
2019-03-20T00:59:18.913Z,103.87
2019-03-20T00:59:54.954Z,105.92
2019-03-20T01:00:32.152Z,92.88
2019-03-20T01:01:08.876Z,110.20
2019-03-20T01:01:44.889Z,113.83
2019-03-20T01:02:21.262Z,99.87
2019-03-20T01:02:57.054Z,92.10
2019-03-20T01:03:32.996Z,83.40
2019-03-20T01:04:09.048Z,93.27
2019-03-20T01:04:45.170Z,82.72
2019-03-20T01:05:21.274Z,94.70
2019-03-20T01:05:57.300Z,113.05
2019-03-20T01:06:33.803Z,101.58
2019-03-20T01:07:11.181Z,93.78
2019-03-20T01:07:47.230Z,104.27
2019-03-20T01:08:23.596Z,99.60
2019-03-20T01:08:59.874Z,103.95
2019-03-20T01:09:36.314Z,92.25
2019-03-20T01:10:14.999Z,113.28
2019-03-20T01:10:50.977Z,108.97
2019-03-20T01:11:27.124Z,105.43
2019-03-20T01:12:02.933Z,110.05
2019-03-20T01:12:38.864Z,99.87
2019-03-20T01:13:14.870Z,95.83
2019-03-20T01:13:50.987Z,105.47
2019-03-20T01:14:26.801Z,93.45
2019-03-20T01:15:02.676Z,101.55
2019-03-20T01:15:38.597Z,103.53
2019-03-20T01:16:14.342Z,111.42
2019-03-20T01:16:50.906Z,134.90
2019-03-20T01:17:26.889Z,141.28
2019-03-20T01:18:03.076Z,154.80
2019-03-20T01:18:39.276Z,159.67
2019-03-20T01:19:15.454Z,159.15
2019-03-20T01:19:51.621Z,126.70
2019-03-20T01:20:27.786Z,122.95
2019-03-20T01:21:04.132Z,120.90
2019-03-20T01:21:40.291Z,110.25
2019-03-20T01:22:16.402Z,110.80
2019-03-20T01:22:52.321Z,136.97
2019-03-20T01:23:28.209Z,123.82
2019-03-20T01:24:04.103Z,114.08
2019-03-20T01:24:39.915Z,126.42
2019-03-20T01:25:16.723Z,118.30
2019-03-20T01:25:52.437Z,118.55
2019-03-20T01:26:28.698Z,104.92
2019-03-20T01:27:04.697Z,115.10
2019-03-20T01:27:40.360Z,131.22
2019-03-20T01:28:16.150Z,160.28
2019-03-20T01:28:52.322Z,162.62
2019-03-20T01:29:28.661Z,172.25
2019-03-20T01:30:04.525Z,230.50
2019-03-20T01:30:40.850Z,173.55
2019-03-20T01:31:16.994Z,191.10
2019-03-20T01:31:53.237Z,198.97
2019-03-20T01:32:29.509Z,192.65
2019-03-20T01:33:07.567Z,177.72
2019-03-20T01:33:43.823Z,184.70
2019-03-20T01:34:19.676Z,154.18
2019-03-20T01:34:55.391Z,172.35
2019-03-20T01:35:31.303Z,159.80
2019-03-20T01:36:07.454Z,174.05
2019-03-20T01:36:43.700Z,165.82
2019-03-20T01:37:19.684Z,132.72
2019-03-20T01:37:55.881Z,127.72
2019-03-20T01:38:31.890Z,124.75
2019-03-20T01:39:08.956Z,133.55
2019-03-20T01:39:44.797Z,139.32
2019-03-20T01:40:20.961Z,146.20
2019-03-20T01:40:57.010Z,143.28
2019-03-20T01:41:37.978Z,136.10
2019-03-20T01:42:10.508Z,130.78
2019-03-20T01:42:46.441Z,136.70
2019-03-20T01:43:22.106Z,127.32
2019-03-20T01:43:57.947Z,114.70
2019-03-20T01:44:33.892Z,115.35
2019-03-20T01:45:10.379Z,119.57
2019-03-20T01:45:46.194Z,126.75
2019-03-20T01:46:22.272Z,144.82
2019-03-20T01:46:58.011Z,160.65
2019-03-20T01:47:34.122Z,135.93
2019-03-20T01:48:09.952Z,119.28
2019-03-20T01:48:46.030Z,127.72
2019-03-20T01:49:21.955Z,118.80
2019-03-20T01:49:58.402Z,125.00
2019-03-20T01:50:34.455Z,181.02
2019-03-20T01:51:23.296Z,142.82
2019-03-20T01:51:59.462Z,110.48
2019-03-20T01:52:35.496Z,128.78
2019-03-20T01:53:11.248Z,134.03
2019-03-20T01:53:46.982Z,133.65
2019-03-20T01:54:23.376Z,133.45
2019-03-20T01:54:59.689Z,116.88
2019-03-20T01:55:35.699Z,131.97
2019-03-20T01:56:11.606Z,128.10
2019-03-20T01:56:47.461Z,131.93
2019-03-20T01:57:23.396Z,120.70
2019-03-20T01:57:59.632Z,111.35
2019-03-20T01:58:35.682Z,112.22
2019-03-20T01:59:11.674Z,126.58
2019-03-20T01:59:47.783Z,128.95
2019-03-20T02:00:23.511Z,127.82
2019-03-20T02:00:59.511Z,123.87
2019-03-20T02:01:35.366Z,118.82
2019-03-20T02:02:12.169Z,106.65
2019-03-20T02:02:48.053Z,103.10
2019-03-20T02:03:23.802Z,113.88
2019-03-20T02:03:59.478Z,131.40
2019-03-20T02:04:35.407Z,134.37
2019-03-20T02:05:11.838Z,115.00
2019-03-20T02:05:48.143Z,125.38
2019-03-20T02:06:23.808Z,127.80
2019-03-20T02:06:59.877Z,148.97
2019-03-20T02:07:35.791Z,153.53
2019-03-20T02:08:11.373Z,118.77
2019-03-20T02:08:47.388Z,146.87
2019-03-20T02:09:23.370Z,136.60
2019-03-20T02:09:59.762Z,160.52
2019-03-20T02:10:35.689Z,128.75
2019-03-20T02:11:11.648Z,138.35
2019-03-20T02:11:47.873Z,257.98
2019-03-20T02:12:23.773Z,203.32
2019-03-20T02:12:59.849Z,140.88
2019-03-20T02:13:36.019Z,133.60
2019-03-20T02:14:11.846Z,126.47
2019-03-20T02:14:47.990Z,136.12
2019-03-20T02:15:23.925Z,130.60
2019-03-20T02:15:59.866Z,126.18
2019-03-20T02:16:35.638Z,135.05
2019-03-20T02:17:11.671Z,124.82
2019-03-20T02:17:47.698Z,146.07
2019-03-20T02:18:23.608Z,135.55
2019-03-20T02:19:02.847Z,141.12
2019-03-20T02:19:39.258Z,142.25
2019-03-20T02:20:16.645Z,143.80
2019-03-20T02:20:53.035Z,139.37
2019-03-20T02:21:28.870Z,156.57
2019-03-20T02:22:05.033Z,148.82
2019-03-20T02:22:41.198Z,162.68
2019-03-20T02:23:17.138Z,154.45
2019-03-20T02:23:53.323Z,161.65
2019-03-20T02:24:29.188Z,167.20
2019-03-20T02:25:05.471Z,165.18
2019-03-20T02:25:41.642Z,163.85
2019-03-20T02:26:17.629Z,161.37
2019-03-20T02:26:54.677Z,166.18
2019-03-20T02:27:30.487Z,172.22
2019-03-20T02:28:06.176Z,184.50
2019-03-20T02:28:42.076Z,168.13
2019-03-20T02:29:18.118Z,150.40
2019-03-20T02:29:53.936Z,161.30
2019-03-20T02:30:29.995Z,153.85
2019-03-20T02:31:05.761Z,153.07
2019-03-20T02:31:42.071Z,166.00
2019-03-20T02:32:18.095Z,156.65
2019-03-20T02:32:53.929Z,161.03
2019-03-20T02:33:30.146Z,160.22
2019-03-20T02:34:06.931Z,168.00
2019-03-20T02:34:43.066Z,162.35
2019-03-20T02:35:18.920Z,166.00
2019-03-20T02:35:54.906Z,173.50
2019-03-20T02:36:30.819Z,169.53
2019-03-20T02:37:06.901Z,165.25
2019-03-20T02:37:43.236Z,174.00
2019-03-20T02:38:19.141Z,164.10
2019-03-20T02:38:54.913Z,166.50
2019-03-20T02:39:30.668Z,166.25
2019-03-20T02:40:07.131Z,175.00
2019-03-20T02:40:43.426Z,167.45
2019-03-20T02:41:19.255Z,169.17
2019-03-20T02:41:55.948Z,158.32
2019-03-20T02:42:31.794Z,177.32
2019-03-20T02:43:08.003Z,162.15
2019-03-20T02:43:44.464Z,175.53
2019-03-20T02:44:20.541Z,170.50
2019-03-20T02:44:56.349Z,162.00
2019-03-20T02:45:32.416Z,165.57
2019-03-20T02:46:08.219Z,164.90
2019-03-20T02:46:44.297Z,166.03
2019-03-20T02:47:20.512Z,162.60
2019-03-20T02:47:56.360Z,153.12
2019-03-20T02:48:32.330Z,157.40
2019-03-20T02:49:08.200Z,164.05
2019-03-20T02:49:44.137Z,177.27
2019-03-20T02:50:20.019Z,166.45
2019-03-20T02:50:56.108Z,169.65
2019-03-20T02:51:31.747Z,169.50
2019-03-20T02:52:07.906Z,174.77
2019-03-20T02:52:44.156Z,172.78
2019-03-20T02:53:20.311Z,178.97
2019-03-20T02:53:56.528Z,175.95
2019-03-20T02:54:32.899Z,186.00
2019-03-20T02:55:09.875Z,170.95
2019-03-20T02:55:45.697Z,177.12
2019-03-20T02:56:21.568Z,175.53
2019-03-20T02:56:57.827Z,173.25
2019-03-20T02:57:33.854Z,168.97
2019-03-20T02:58:09.604Z,153.25
2019-03-20T02:58:45.437Z,154.03
2019-03-20T02:59:21.745Z,167.43
2019-03-20T02:59:57.930Z,164.60
2019-03-20T03:00:33.888Z,163.77
2019-03-20T03:01:09.761Z,171.82
2019-03-20T03:01:45.935Z,167.55
2019-03-20T03:02:21.847Z,184.03
2019-03-20T03:02:58.037Z,172.50
2019-03-20T03:03:34.017Z,172.13
2019-03-20T03:04:10.569Z,179.97
2019-03-20T03:04:46.522Z,190.38
2019-03-20T03:05:22.634Z,180.87
2019-03-20T03:06:06.805Z,156.80
2019-03-20T03:06:36.593Z,158.90
2019-03-20T03:07:16.106Z,170.80
2019-03-20T03:07:52.939Z,157.03
2019-03-20T03:08:29.036Z,180.95
2019-03-20T03:09:07.216Z,152.25
2019-03-20T03:09:43.427Z,165.65
2019-03-20T03:10:19.896Z,176.55
2019-03-20T03:10:55.915Z,184.28
2019-03-20T03:11:32.431Z,174.77
2019-03-20T03:12:08.644Z,190.50
2019-03-20T03:12:45.029Z,178.68
2019-03-20T03:13:21.056Z,165.68
2019-03-20T03:13:57.557Z,165.95
2019-03-20T03:14:33.388Z,180.67
2019-03-20T03:15:09.815Z,180.00
2019-03-20T03:15:45.526Z,175.22
2019-03-20T03:16:22.015Z,186.77
2019-03-20T03:16:58.426Z,171.85
2019-03-20T03:17:35.316Z,167.90
2019-03-20T03:18:11.707Z,165.77
2019-03-20T03:18:48.044Z,157.52
2019-03-20T03:19:24.389Z,176.93
2019-03-20T03:20:00.253Z,202.10
2019-03-20T03:20:36.861Z,193.70
2019-03-20T03:21:13.360Z,182.50
2019-03-20T03:21:49.466Z,187.68
2019-03-20T03:22:25.859Z,168.25
2019-03-20T03:23:01.880Z,188.85
2019-03-20T03:23:37.742Z,191.60
2019-03-20T03:24:14.115Z,185.30
2019-03-20T03:24:50.885Z,181.52
2019-03-20T03:25:27.163Z,192.72
2019-03-20T03:26:02.928Z,183.60
2019-03-20T03:26:38.953Z,175.57
2019-03-20T03:27:16.468Z,177.75
2019-03-20T03:27:52.762Z,186.07
2019-03-20T03:28:28.956Z,182.25
2019-03-20T03:29:05.488Z,180.27
2019-03-20T03:29:41.558Z,168.17
2019-03-20T03:30:17.840Z,178.20
2019-03-20T03:30:53.880Z,167.45
2019-03-20T03:31:30.304Z,151.65
2019-03-20T03:32:06.700Z,158.07
2019-03-20T03:32:42.858Z,170.15
2019-03-20T03:33:19.626Z,169.20
2019-03-20T03:33:55.481Z,173.75
2019-03-20T03:34:31.203Z,163.82
2019-03-20T03:35:07.451Z,166.10
2019-03-20T03:35:43.317Z,179.30
2019-03-20T03:36:21.605Z,175.78
2019-03-20T03:36:56.768Z,197.40
2019-03-20T03:37:32.710Z,204.10
2019-03-20T03:38:08.650Z,193.22
2019-03-20T03:38:44.698Z,220.63
2019-03-20T03:39:20.758Z,267.55
2019-03-20T03:39:56.822Z,253.92
2019-03-20T03:40:32.876Z,271.15
2019-03-20T03:41:09.082Z,232.67
2019-03-20T03:41:44.833Z,231.47
2019-03-20T03:42:21.102Z,209.00
2019-03-20T03:42:56.870Z,191.77
2019-03-20T03:43:32.502Z,144.30
2019-03-20T03:44:08.823Z,178.20
2019-03-20T03:44:45.280Z,213.32
2019-03-20T03:45:21.448Z,217.95
2019-03-20T03:45:58.921Z,249.77
2019-03-20T03:46:34.774Z,243.25
2019-03-20T03:47:10.775Z,214.63
2019-03-20T03:47:46.977Z,196.87
2019-03-20T03:48:23.494Z,222.67
2019-03-20T03:48:59.646Z,209.83
2019-03-20T03:49:35.376Z,183.40
2019-03-20T03:50:12.426Z,172.70
2019-03-20T03:50:48.602Z,174.15
2019-03-20T03:51:24.506Z,171.53
2019-03-20T03:52:00.463Z,184.60
2019-03-20T03:52:36.139Z,159.57
2019-03-20T03:53:11.897Z,164.97
2019-03-20T03:53:47.877Z,178.12
2019-03-20T03:54:24.038Z,179.42
2019-03-20T03:55:00.494Z,192.35
2019-03-20T03:55:37.088Z,163.90
2019-03-20T03:56:13.162Z,159.18
2019-03-20T03:56:49.428Z,154.80
2019-03-20T03:57:25.612Z,168.37
2019-03-20T03:58:02.388Z,178.95
2019-03-20T03:58:38.354Z,169.13
2019-03-20T03:59:14.249Z,160.55
2019-03-20T03:59:50.065Z,155.70
2019-03-20T04:00:26.069Z,152.45
2019-03-20T04:01:02.321Z,161.22
2019-03-20T04:01:38.197Z,164.47
2019-03-20T04:02:14.415Z,173.25
2019-03-20T04:02:50.666Z,177.07
2019-03-20T04:03:27.026Z,204.28
2019-03-20T04:04:06.345Z,228.47
2019-03-20T04:04:42.373Z,228.22
2019-03-20T04:05:18.570Z,209.57
2019-03-20T04:05:54.459Z,231.85
2019-03-20T04:06:35.999Z,245.50
2019-03-20T04:07:07.802Z,199.35
2019-03-20T04:07:43.659Z,196.40
2019-03-20T04:08:19.537Z,174.75
2019-03-20T04:08:55.468Z,171.72
2019-03-20T04:09:31.707Z,171.07
2019-03-20T04:10:08.679Z,234.43
2019-03-20T04:10:44.704Z,256.57
2019-03-20T04:11:20.405Z,253.47
2019-03-20T04:11:56.459Z,221.30
2019-03-20T04:12:32.166Z,195.10
2019-03-20T04:13:08.148Z,209.70
2019-03-20T04:13:44.153Z,201.25
2019-03-20T04:14:20.072Z,197.95
2019-03-20T04:14:55.827Z,223.07
2019-03-20T04:15:31.895Z,212.63
2019-03-20T04:16:08.106Z,196.35
2019-03-20T04:16:44.087Z,179.12
2019-03-20T04:17:24.991Z,171.20
2019-03-20T04:18:00.968Z,182.95
2019-03-20T04:18:36.704Z,168.15
2019-03-20T04:19:12.644Z,166.60
2019-03-20T04:19:48.710Z,193.07
2019-03-20T04:20:25.042Z,177.25
2019-03-20T04:21:01.027Z,180.55
2019-03-20T04:21:36.790Z,167.93
2019-03-20T04:22:12.453Z,182.72
2019-03-20T04:22:48.442Z,181.22
2019-03-20T04:23:24.539Z,187.43
2019-03-20T04:24:00.651Z,210.43
2019-03-20T04:24:36.782Z,221.77
2019-03-20T04:25:12.994Z,206.02
2019-03-20T04:25:49.094Z,198.53
2019-03-20T04:26:25.086Z,182.07
2019-03-20T04:27:01.390Z,189.67
2019-03-20T04:27:41.430Z,191.70
2019-03-20T04:28:17.416Z,192.92
2019-03-20T04:28:53.311Z,179.75
2019-03-20T04:29:29.462Z,192.05
2019-03-20T04:30:06.050Z,219.32
2019-03-20T04:30:41.715Z,198.78
2019-03-20T04:31:18.111Z,232.37
2019-03-20T04:31:54.171Z,199.30
2019-03-20T04:32:30.113Z,185.37
2019-03-20T04:33:06.082Z,189.55
2019-03-20T04:33:41.724Z,190.60
2019-03-20T04:34:18.203Z,195.05
2019-03-20T04:34:53.974Z,189.80
2019-03-20T04:35:29.949Z,213.90
2019-03-20T04:36:06.017Z,199.10
2019-03-20T04:36:47.474Z,194.05
2019-03-20T04:37:19.926Z,187.65
2019-03-20T04:37:55.978Z,182.72
2019-03-20T04:38:31.692Z,194.07
2019-03-20T04:39:08.839Z,197.93
2019-03-20T04:39:44.858Z,199.38
2019-03-20T04:40:21.174Z,197.40
2019-03-20T04:40:57.040Z,198.82
2019-03-20T04:41:33.294Z,191.77
2019-03-20T04:42:09.066Z,205.80
2019-03-20T04:42:45.331Z,188.72
2019-03-20T04:43:21.646Z,190.65
2019-03-20T04:43:57.434Z,198.35
2019-03-20T04:44:33.308Z,170.35
2019-03-20T04:45:12.268Z,183.55
2019-03-20T04:45:47.012Z,178.68
2019-03-20T04:46:23.076Z,185.07
2019-03-20T04:46:58.936Z,186.85
2019-03-20T04:47:35.059Z,194.85
2019-03-20T04:48:11.083Z,183.45
2019-03-20T04:48:47.374Z,208.25
2019-03-20T04:49:23.336Z,237.17
2019-03-20T04:49:59.273Z,217.70
2019-03-20T04:50:36.131Z,227.45
2019-03-20T04:51:12.052Z,213.03
2019-03-20T04:51:48.174Z,221.35
2019-03-20T04:52:24.230Z,231.68
2019-03-20T04:53:01.162Z,245.40
2019-03-20T04:53:38.608Z,232.80
2019-03-20T04:54:15.081Z,240.77
2019-03-20T04:54:51.789Z,248.10
2019-03-20T04:55:28.659Z,225.35
2019-03-20T04:56:04.444Z,208.63
2019-03-20T04:56:40.510Z,209.35
2019-03-20T04:57:17.104Z,207.15
2019-03-20T04:57:53.946Z,202.13
2019-03-20T04:58:29.881Z,215.37
2019-03-20T04:59:06.436Z,197.65
2019-03-20T04:59:42.323Z,187.90
2019-03-20T05:00:18.471Z,200.97
2019-03-20T05:00:54.344Z,205.95
2019-03-20T05:01:30.480Z,182.72
2019-03-20T05:02:06.954Z,180.07
2019-03-20T05:02:43.059Z,194.37
2019-03-20T05:03:19.124Z,212.17
2019-03-20T05:03:55.830Z,213.47
2019-03-20T05:04:32.309Z,190.18
2019-03-20T05:05:09.972Z,204.82
2019-03-20T05:05:46.084Z,189.37
2019-03-20T05:06:22.796Z,194.17
2019-03-20T05:06:59.363Z,186.22
2019-03-20T05:07:35.769Z,178.95
2019-03-20T05:08:12.045Z,186.43
2019-03-20T05:08:49.540Z,192.87
2019-03-20T05:09:25.808Z,181.60
2019-03-20T05:10:02.299Z,191.60
2019-03-20T05:10:38.603Z,188.97
2019-03-20T05:11:14.553Z,193.87
2019-03-20T05:11:50.576Z,209.52
2019-03-20T05:12:26.835Z,217.47
2019-03-20T05:13:03.579Z,220.85
2019-03-20T05:13:39.404Z,232.18
2019-03-20T05:14:15.784Z,229.47
2019-03-20T05:14:51.903Z,235.82
2019-03-20T05:15:27.674Z,220.82
2019-03-20T05:16:03.880Z,209.52
2019-03-20T05:16:40.085Z,204.53
2019-03-20T05:17:15.915Z,204.90
2019-03-20T05:17:52.146Z,201.07
2019-03-20T05:18:28.713Z,205.43
2019-03-20T05:19:05.285Z,218.65
2019-03-20T05:19:41.357Z,232.72
2019-03-20T05:20:18.247Z,230.00
2019-03-20T05:20:54.348Z,215.12
2019-03-20T05:21:30.678Z,203.50
2019-03-20T05:22:07.183Z,217.43
2019-03-20T05:22:43.233Z,223.57
2019-03-20T05:23:19.054Z,209.22
2019-03-20T05:23:55.017Z,211.70
2019-03-20T05:24:31.071Z,209.52
2019-03-20T05:25:07.315Z,206.55
2019-03-20T05:25:43.286Z,202.93
2019-03-20T05:26:19.892Z,193.10
2019-03-20T05:26:56.585Z,203.75
2019-03-20T05:27:32.948Z,210.17
2019-03-20T05:28:09.265Z,192.43
2019-03-20T05:28:46.013Z,187.22
2019-03-20T05:29:22.602Z,189.25
2019-03-20T05:29:59.420Z,202.97
2019-03-20T05:30:35.209Z,184.48
2019-03-20T05:31:12.103Z,196.90
2019-03-20T05:31:48.049Z,183.93
2019-03-20T05:32:24.451Z,182.45
2019-03-20T05:33:01.017Z,201.10
2019-03-20T05:33:37.296Z,197.87
2019-03-20T05:34:13.602Z,194.90
2019-03-20T05:34:49.534Z,184.87
2019-03-20T05:35:25.547Z,202.93
2019-03-20T05:36:01.737Z,190.65
2019-03-20T05:36:38.434Z,203.35
2019-03-20T05:37:15.023Z,189.13
2019-03-20T05:37:52.030Z,196.75
2019-03-20T05:38:28.834Z,182.32
2019-03-20T05:39:05.649Z,193.35
2019-03-20T05:39:42.085Z,172.17
2019-03-20T05:40:18.386Z,184.57
2019-03-20T05:40:54.932Z,189.07
2019-03-20T05:41:31.184Z,216.42
2019-03-20T05:42:08.159Z,221.85
2019-03-20T05:42:43.650Z,224.88
2019-03-20T05:43:19.270Z,231.28
2019-03-20T05:43:54.702Z,261.68
2019-03-20T05:44:30.151Z,235.15
2019-03-20T05:45:05.892Z,241.88
2019-03-20T05:45:41.834Z,219.72
2019-03-20T05:46:17.238Z,251.25
2019-03-20T05:46:52.701Z,268.90
2019-03-20T05:47:28.157Z,215.47
2019-03-20T05:48:04.105Z,217.65
2019-03-20T05:48:39.607Z,216.65
2019-03-20T05:49:15.043Z,207.92
2019-03-20T05:49:50.345Z,211.15
2019-03-20T05:50:25.898Z,213.90
2019-03-20T05:51:01.435Z,211.68
2019-03-20T05:51:36.825Z,223.22
2019-03-20T05:52:12.177Z,223.70
2019-03-20T05:52:47.702Z,220.37
2019-03-20T05:53:23.144Z,239.50
2019-03-20T05:53:58.569Z,229.60
2019-03-20T05:54:34.108Z,224.67
2019-03-20T05:55:09.877Z,226.92
2019-03-20T05:55:45.197Z,230.25
2019-03-20T05:56:20.775Z,220.17
2019-03-20T05:56:56.387Z,233.70
2019-03-20T05:57:31.881Z,253.37
2019-03-20T05:58:07.393Z,232.22
2019-03-20T05:58:42.935Z,227.53
2019-03-20T05:59:18.452Z,228.30
2019-03-20T05:59:53.892Z,224.18
2019-03-20T06:00:31.773Z,242.28
2019-03-20T06:01:07.298Z,231.80
2019-03-20T06:01:42.787Z,228.50
2019-03-20T06:02:18.190Z,222.40
2019-03-20T06:02:53.491Z,205.30
2019-03-20T06:03:28.918Z,210.35
2019-03-20T06:04:04.479Z,229.35
2019-03-20T06:04:39.770Z,220.27
2019-03-20T06:05:16.217Z,213.52
2019-03-20T06:05:52.257Z,199.82
2019-03-20T06:06:28.185Z,216.50
2019-03-20T06:07:04.075Z,208.25
2019-03-20T06:07:40.261Z,200.25
2019-03-20T06:08:16.470Z,205.22
2019-03-20T06:08:53.131Z,201.67
2019-03-20T06:09:29.118Z,205.00
2019-03-20T06:10:05.612Z,200.35
2019-03-20T06:10:45.929Z,201.52
2019-03-20T06:11:21.974Z,206.32
2019-03-20T06:11:59.645Z,202.85
2019-03-20T06:12:35.614Z,194.47
2019-03-20T06:13:11.762Z,192.07
2019-03-20T06:13:47.976Z,198.55
2019-03-20T06:14:24.540Z,201.18
2019-03-20T06:15:00.707Z,199.15
2019-03-20T06:15:37.294Z,196.78
2019-03-20T06:16:13.307Z,187.55
2019-03-20T06:16:49.131Z,208.28
2019-03-20T06:17:25.026Z,208.05
2019-03-20T06:18:00.984Z,200.62
2019-03-20T06:18:37.486Z,202.55
2019-03-20T06:19:13.797Z,208.80
2019-03-20T06:19:49.516Z,207.18
2019-03-20T06:20:25.187Z,193.15
2019-03-20T06:21:01.643Z,207.87
2019-03-20T06:21:37.859Z,204.47
2019-03-20T06:22:15.527Z,207.30
2019-03-20T06:22:52.754Z,197.47
2019-03-20T06:23:29.457Z,194.87
2019-03-20T06:24:05.609Z,211.18
2019-03-20T06:24:41.886Z,203.75
2019-03-20T06:25:20.921Z,204.82
2019-03-20T06:25:54.822Z,205.25
2019-03-20T06:26:30.358Z,198.23
2019-03-20T06:27:05.859Z,187.70
2019-03-20T06:27:41.489Z,196.22
2019-03-20T06:28:17.096Z,212.42
2019-03-20T06:28:52.800Z,212.68
2019-03-20T06:29:28.399Z,226.82
2019-03-20T06:30:04.522Z,218.85
2019-03-20T06:30:40.095Z,215.82
2019-03-20T06:31:15.681Z,216.10
2019-03-20T06:31:51.302Z,207.05
2019-03-20T06:32:26.798Z,202.38
2019-03-20T06:33:02.407Z,209.50
2019-03-20T06:33:37.870Z,198.20
2019-03-20T06:34:13.442Z,193.35
2019-03-20T06:34:49.174Z,197.57
2019-03-20T06:35:25.024Z,208.40
2019-03-20T06:36:00.656Z,209.18
2019-03-20T06:36:36.447Z,211.90
2019-03-20T06:37:11.897Z,199.27
2019-03-20T06:37:47.365Z,206.97
2019-03-20T06:38:23.418Z,211.57
2019-03-20T06:39:00.332Z,226.27
2019-03-20T06:39:35.871Z,228.90
2019-03-20T06:40:11.958Z,196.05
2019-03-20T06:40:47.469Z,206.78
2019-03-20T06:41:23.076Z,196.50
2019-03-20T06:41:58.542Z,202.87
2019-03-20T06:42:34.017Z,198.20
2019-03-20T06:43:09.716Z,188.00
2019-03-20T06:43:45.280Z,182.60
2019-03-20T06:44:20.835Z,200.55
2019-03-20T06:44:56.378Z,185.18
2019-03-20T06:45:31.927Z,195.57
2019-03-20T06:46:07.741Z,182.88
2019-03-20T06:46:43.357Z,184.32
2019-03-20T06:47:18.919Z,183.90
2019-03-20T06:47:54.446Z,193.78
2019-03-20T06:48:30.065Z,202.40
2019-03-20T06:49:07.762Z,197.07
2019-03-20T06:49:42.963Z,186.30
2019-03-20T06:50:18.614Z,184.40
2019-03-20T06:50:54.108Z,180.03
2019-03-20T06:51:29.627Z,178.78
2019-03-20T06:52:05.208Z,190.80
2019-03-20T06:52:40.857Z,195.97
2019-03-20T06:53:16.542Z,188.70
2019-03-20T06:53:52.185Z,196.07
2019-03-20T06:54:27.890Z,186.37
2019-03-20T06:55:03.624Z,189.20
2019-03-20T06:55:39.360Z,195.20
2019-03-20T06:56:15.034Z,191.20
2019-03-20T06:56:50.662Z,195.07
2019-03-20T06:57:26.323Z,195.70
2019-03-20T06:58:01.994Z,190.55
2019-03-20T06:58:37.532Z,194.37
2019-03-20T07:00:09.163Z,191.05
2019-03-20T07:01:12.820Z,187.22
2019-03-20T07:01:48.268Z,191.07
2019-03-20T07:02:23.752Z,198.10
2019-03-20T07:03:00.205Z,206.13
2019-03-20T07:03:48.428Z,181.20
2019-03-20T07:04:51.523Z,202.15
2019-03-20T07:05:42.465Z,182.85
2019-03-20T07:06:34.170Z,178.50
2019-03-20T07:07:26.588Z,178.15
2019-03-20T07:08:01.747Z,182.20
2019-03-20T07:08:42.115Z,187.53
2019-03-20T07:09:50.883Z,188.22
2019-03-20T07:11:03.267Z,184.97
2019-03-20T07:11:41.287Z,195.50
2019-03-20T07:12:17.319Z,185.63
2019-03-20T07:12:52.884Z,179.80
2019-03-20T07:13:28.653Z,171.22
2019-03-20T07:14:04.114Z,183.78
2019-03-20T07:14:39.633Z,192.32
2019-03-20T07:15:15.196Z,181.25
2019-03-20T07:15:50.727Z,184.45
2019-03-20T07:16:26.390Z,172.25
2019-03-20T07:17:01.965Z,190.00
2019-03-20T07:17:37.421Z,179.63
2019-03-20T07:18:13.109Z,196.72
2019-03-20T07:18:48.611Z,172.13
2019-03-20T07:19:24.156Z,171.65
2019-03-20T07:19:59.997Z,176.72
2019-03-20T07:20:35.613Z,185.93
2019-03-20T07:21:11.301Z,173.55
2019-03-20T07:21:46.887Z,174.38
2019-03-20T07:22:22.467Z,174.00
2019-03-20T07:22:58.063Z,173.17
2019-03-20T07:23:33.677Z,181.85
2019-03-20T07:24:09.236Z,189.35
2019-03-20T07:24:44.951Z,167.53
2019-03-20T07:25:20.691Z,171.22
2019-03-20T07:25:56.253Z,185.70
2019-03-20T07:26:31.895Z,172.30
2019-03-20T07:27:07.701Z,179.70
2019-03-20T07:27:43.305Z,167.75
2019-03-20T07:28:18.884Z,162.12
2019-03-20T07:28:54.391Z,166.85
2019-03-20T07:29:29.861Z,172.85
2019-03-20T07:30:06.518Z,169.20
2019-03-20T07:30:42.033Z,173.40
2019-03-20T07:31:17.668Z,159.52
2019-03-20T07:31:53.247Z,178.47
2019-03-20T07:32:30.060Z,178.35
2019-03-20T07:33:05.952Z,158.03
2019-03-20T07:33:41.456Z,165.90
2019-03-20T07:34:17.187Z,153.57
2019-03-20T07:34:52.818Z,166.45
2019-03-20T07:35:28.468Z,152.07
2019-03-20T07:36:04.080Z,142.05
2019-03-20T07:36:39.710Z,148.78